Time;durP1;ratioP1;P1;durP2;ratioP2;P2;SDS_P1;SDS_P2;PMS_P1;PMS_P2;Temp;Humidity;BMP_temperature;BMP_pressure;BME280_temperature;BME280_humidity;BME280_pressure;Samples;Min_cycle;Max_cycle;Signal;HPM_P1;HPM_P2
2022/07/15 08:01:08;;;;;;;5.68;2.30;;;17.70;90.70;;;;;;5066757;28;20939;-45
2022/07/15 08:03:35;;;;;;;6.03;2.50;;;17.50;90.90;;;;;;5045102;28;20411;-50
2022/07/15 08:06:01;;;;;;;7.70;2.25;;;17.60;90.80;;;;;;5049176;28;20037;-46
2022/07/15 08:08:28;;;;;;;6.97;2.20;;;17.70;90.80;;;;;;5037816;28;20038;-51
2022/07/15 08:10:55;;;;;;;6.43;1.80;;;17.80;90.40;;;;;;5030052;28;20034;-48
2022/07/15 08:13:22;;;;;;;3.30;1.40;;;18.00;90.20;;;;;;5030679;28;20038;-50
2022/07/15 08:15:48;;;;;;;10.05;2.08;;;18.20;90.40;;;;;;5047739;28;20098;-44
2022/07/15 08:18:23;;;;;;;5.65;2.05;;;18.30;89.60;;;;;;5025166;28;20092;-47
2022/07/15 08:20:51;;;;;;;4.45;1.80;;;18.40;89.00;;;;;;5026921;28;20045;-48
2022/07/15 08:23:20;;;;;;;6.82;2.17;;;18.40;88.30;;;;;;5023071;28;20117;-51
2022/07/15 08:25:47;;;;;;;6.50;2.33;;;18.50;88.40;;;;;;5034001;28;20037;-48
2022/07/15 08:28:14;;;;;;;5.63;1.60;;;18.60;87.20;;;;;;5029819;28;20195;-49
2022/07/15 08:30:41;;;;;;;4.50;1.75;;;18.70;86.80;;;;;;5029118;28;20049;-48
2022/07/15 08:33:08;;;;;;;3.92;1.83;;;18.70;86.60;;;;;;5028513;28;20081;-52
2022/07/15 08:35:35;;;;;;;4.90;1.83;;;18.70;86.70;;;;;;5023620;28;20048;-48
2022/07/15 08:38:03;;;;;;;6.43;1.98;;;18.80;86.80;;;;;;5029857;28;20041;-50
2022/07/15 08:40:31;;;;;;;5.10;1.70;;;18.90;86.20;;;;;;5029841;28;20061;-49
2022/07/15 08:42:58;;;;;;;8.07;1.88;;;19.00;85.70;;;;;;5021771;28;20699;-46
2022/07/15 08:45:25;;;;;;;5.88;2.10;;;19.00;85.30;;;;;;5017460;28;20415;-46
2022/07/15 08:47:52;;;;;;;5.50;1.73;;;19.10;84.50;;;;;;5024478;28;20088;-47
2022/07/15 08:50:20;;;;;;;9.95;1.63;;;19.10;84.70;;;;;;5027704;28;20043;-53
2022/07/15 08:52:47;;;;;;;3.67;1.63;;;19.20;83.50;;;;;;5022186;28;20042;-50
2022/07/15 08:55:15;;;;;;;4.18;1.40;;;19.20;83.60;;;;;;5035198;28;20038;-46
2022/07/15 08:57:42;;;;;;;4.70;1.40;;;19.20;82.50;;;;;;5040349;28;20037;-50
2022/07/15 09:00:10;;;;;;;5.97;1.75;;;19.10;80.90;;;;;;5022714;28;20140;-49
2022/07/15 09:02:37;;;;;;;5.72;1.50;;;19.10;81.70;;;;;;5021777;28;20543;-49
2022/07/15 09:05:05;;;;;;;6.35;1.60;;;19.10;83.40;;;;;;5023512;28;20042;-46
2022/07/15 09:07:33;;;;;;;9.63;1.40;;;19.20;82.10;;;;;;5026999;28;20099;-47
2022/07/15 09:10:00;;;;;;;4.95;1.35;;;19.40;81.90;;;;;;5032981;28;20041;-51
2022/07/15 09:12:27;;;;;;;3.45;1.50;;;19.50;81.20;;;;;;5014514;28;20041;-47
2022/07/15 09:14:54;;;;;;;6.35;1.40;;;19.50;79.90;;;;;;5017716;28;20045;-51
2022/07/15 09:17:20;;;;;;;5.18;1.65;;;19.50;79.80;;;;;;5010867;28;20045;-49
2022/07/15 09:19:47;;;;;;;4.90;1.40;;;19.50;78.60;;;;;;5020119;28;20069;-47
2022/07/15 09:22:15;;;;;;;4.35;1.40;;;19.50;79.00;;;;;;5031388;28;20037;-47
2022/07/15 09:24:42;;;;;;;7.30;1.35;;;19.50;80.10;;;;;;5027041;28;20052;-47
2022/07/15 09:27:08;;;;;;;4.05;1.63;;;19.50;78.70;;;;;;5025417;28;20069;-51
2022/07/15 09:37:57;;;;;;;6.20;1.48;;;19.80;78.60;;;;;;5015200;28;20045;-50
2022/07/15 09:40:23;;;;;;;4.78;1.38;;;19.80;77.70;;;;;;5023531;28;20061;-53
2022/07/15 09:42:50;;;;;;;4.80;1.27;;;19.90;79.70;;;;;;5014603;28;20033;-51
2022/07/15 09:45:17;;;;;;;4.53;1.30;;;19.90;77.70;;;;;;5018152;28;20547;-48
2022/07/15 09:47:44;;;;;;;3.38;1.42;;;20.00;76.80;;;;;;5021187;28;20042;-46
2022/07/15 09:50:11;;;;;;;4.63;1.40;;;20.00;75.70;;;;;;5015599;28;20100;-47
2022/07/15 09:52:37;;;;;;;4.28;1.10;;;20.00;75.50;;;;;;5014023;28;20041;-46
2022/07/15 09:55:04;;;;;;;3.42;1.17;;;20.00;75.60;;;;;;5016622;28;20038;-47
2022/07/15 09:57:31;;;;;;;4.60;1.35;;;20.10;74.20;;;;;;5017027;28;20042;-46
2022/07/15 09:59:58;;;;;;;4.30;1.60;;;20.20;73.60;;;;;;5008739;28;20053;-47
2022/07/15 10:02:26;;;;;;;2.97;1.23;;;20.20;73.40;;;;;;5021178;28;20045;-46
2022/07/15 10:04:54;;;;;;;3.13;1.42;;;20.10;72.10;;;;;;5014314;28;20116;-47
2022/07/15 10:07:21;;;;;;;4.63;1.10;;;20.10;71.80;;;;;;5013597;28;20050;-52
2022/07/15 10:09:56;;;;;;;3.30;1.23;;;20.00;72.50;;;;;;5015315;28;20046;-48
2022/07/15 10:12:32;;;;;;;5.97;1.35;;;20.00;73.80;;;;;;5020570;28;20038;-50
2022/07/15 10:14:58;;;;;;;4.20;1.10;;;20.00;74.20;;;;;;5030197;28;20037;-46
2022/07/15 10:17:25;;;;;;;5.05;1.38;;;20.20;73.30;;;;;;5030554;28;20445;-46
2022/07/15 10:19:52;;;;;;;3.05;1.20;;;20.20;73.30;;;;;;5018242;28;20042;-46
2022/07/15 10:22:19;;;;;;;3.85;1.08;;;20.30;72.40;;;;;;5024946;28;20159;-49
2022/07/15 10:24:46;;;;;;;5.85;1.35;;;20.30;70.60;;;;;;5031915;28;20053;-45
2022/07/15 10:27:13;;;;;;;4.20;0.95;;;20.40;70.10;;;;;;5018843;28;20049;-54
2022/07/15 10:29:40;;;;;;;3.13;1.23;;;20.50;69.60;;;;;;5014867;28;20049;-50
2022/07/15 10:32:06;;;;;;;4.25;1.30;;;20.50;68.70;;;;;;5015009;28;20386;-49
2022/07/15 10:34:35;;;;;;;4.68;1.15;;;20.50;67.70;;;;;;5015234;28;20133;-48
2022/07/15 10:37:02;;;;;;;3.88;1.10;;;20.60;69.00;;;;;;5015455;28;20046;-51
2022/07/15 10:39:28;;;;;;;3.35;0.90;;;20.60;68.90;;;;;;5024687;28;20041;-49
2022/07/15 10:41:58;;;;;;;5.25;1.33;;;20.60;67.30;;;;;;5030756;28;20495;-45
2022/07/15 10:44:25;;;;;;;3.10;0.90;;;20.80;67.60;;;;;;5018641;28;20050;-45
2022/07/15 10:46:51;;;;;;;2.13;0.90;;;20.90;67.40;;;;;;5012364;28;20042;-49
2022/07/15 10:49:18;;;;;;;4.32;1.00;;;20.80;67.00;;;;;;5012613;28;20038;-44
2022/07/15 10:51:45;;;;;;;3.45;1.20;;;20.90;68.50;;;;;;5016887;28;20397;-44
2022/07/15 10:54:12;;;;;;;5.97;1.20;;;21.10;67.90;;;;;;5016630;28;20046;-48
2022/07/15 10:56:38;;;;;;;5.35;1.55;;;21.20;67.00;;;;;;5014448;28;20440;-45
2022/07/15 10:59:05;;;;;;;2.95;1.05;;;21.30;67.00;;;;;;5015337;28;20042;-45
